createdAt,value
2018-05-09T11:23:52.258Z,1007.19
2018-05-09T11:24:51.977Z,1007.28
2018-05-09T11:26:16.868Z,1007.24
2018-05-09T11:27:16.888Z,1007.24
2018-05-09T11:28:16.917Z,1007.20
2018-05-09T11:29:16.943Z,1007.21
2018-05-09T11:30:16.976Z,1007.20
2018-05-09T11:31:17.002Z,1007.18
2018-05-09T11:32:17.040Z,1007.19
2018-05-09T11:33:17.046Z,1007.19
2018-05-09T11:34:17.073Z,1007.20
2018-05-09T11:35:17.101Z,1007.23
2018-05-09T11:36:17.152Z,1007.18
2018-05-09T11:37:17.159Z,1007.15
2018-05-09T11:38:17.207Z,1007.14
2018-05-09T11:39:17.228Z,1007.12
2018-05-09T11:40:17.224Z,1007.08
2018-05-09T11:41:17.258Z,1007.07
2018-05-09T11:42:17.284Z,1007.06
2018-05-09T11:43:17.340Z,1007.06
2018-05-09T11:44:17.333Z,1007.08
2018-05-09T11:45:17.381Z,1007.04
2018-05-09T11:46:17.425Z,1007.05
2018-05-09T11:47:17.467Z,1007.05
2018-05-09T11:48:17.447Z,1007.04
2018-05-09T11:49:17.471Z,1006.97
2018-05-09T11:50:17.498Z,1007.00
2018-05-09T11:51:17.524Z,1007.08
2018-05-09T11:52:17.552Z,1007.12
2018-05-09T11:53:17.742Z,1007.00
2018-05-09T11:54:17.603Z,1007.01
2018-05-09T11:55:17.641Z,1006.98
2018-05-09T11:56:17.650Z,1006.92
2018-05-09T11:57:17.693Z,1006.94
2018-05-09T11:58:17.707Z,1006.94
2018-05-09T11:59:17.746Z,1006.93
2018-05-09T12:00:17.791Z,1006.97
2018-05-09T12:01:17.790Z,1006.95
2018-05-09T12:02:18.053Z,1006.97
2018-05-09T12:03:17.839Z,1006.91
2018-05-09T12:04:17.872Z,1006.93
2018-05-09T12:05:17.892Z,1006.87
2018-05-09T12:06:18.076Z,1006.86
2018-05-09T12:07:17.959Z,1006.90
2018-05-09T12:08:18.067Z,1006.91
2018-05-09T12:09:18.019Z,1006.92
2018-05-09T12:10:18.042Z,1006.89
2018-05-09T12:11:18.073Z,1006.92
2018-05-09T12:12:18.089Z,1006.85
2018-05-09T12:13:18.110Z,1006.83
2018-05-09T12:14:18.180Z,1006.84
2018-05-09T12:15:18.157Z,1006.84
2018-05-09T12:16:18.241Z,1006.82
2018-05-09T12:17:18.275Z,1006.84
2018-05-09T12:18:18.248Z,1006.83
2018-05-09T12:19:18.280Z,1006.77
2018-05-09T12:20:18.294Z,1006.78
2018-05-09T12:21:18.320Z,1006.78
2018-05-09T12:22:18.349Z,1006.76
2018-05-09T12:23:18.382Z,1006.79
2018-05-09T12:24:18.401Z,1006.75
2018-05-09T12:25:18.442Z,1006.75
2018-05-09T12:26:18.499Z,1006.71
2018-05-09T12:27:18.500Z,1006.71
2018-05-09T12:28:18.511Z,1006.76
2018-05-09T12:29:18.541Z,1006.62
2018-05-09T12:30:18.567Z,1006.65
2018-05-09T12:31:18.608Z,1006.59
2018-05-09T12:32:18.616Z,1006.57
2018-05-09T12:33:18.644Z,1006.62
2018-05-09T12:34:18.673Z,1006.58
2018-05-09T12:35:18.695Z,1006.58
2018-05-09T12:36:18.725Z,1006.59
2018-05-09T12:37:18.794Z,1006.60
2018-05-09T12:38:18.780Z,1006.58
2018-05-09T12:39:18.811Z,1006.58
2018-05-09T12:40:18.839Z,1006.50
2018-05-09T12:41:18.903Z,1006.57
2018-05-09T12:42:18.884Z,1006.58
2018-05-09T12:43:18.912Z,1006.47
2018-05-09T12:44:18.942Z,1006.47
2018-05-09T12:45:18.963Z,1006.47
2018-05-09T12:46:18.999Z,1006.47
2018-05-09T12:47:19.026Z,1006.45
2018-05-09T12:48:19.071Z,1006.41
